Impacts TAF Board INFO
IDs:

KDFW - Dallas-Ft Worth Intl, TX, US

Issued at 0909 UTC 07 Dec 2016
Updated at 1032 UTC 07 Dec 2016
Potential Impact None Slight Moderate High
Time0953Z 07/11Z 07/12Z 07/13Z 07/14Z 07/15Z 07/16Z 07/17Z 07/18Z 07/19Z 07/20Z 07/21Z 07/22Z 07/23Z
Type OBS PRVL
  [TEMP]  
PRVL
  [TEMP]  
PRVL
  [TEMP]  
PRVL PRVL PRVL PRVL PRVL PRVL PRVL PRVL PRVL PRVL
VIS 10 >6 >6 >6 >6 >6 >6 >6 >6 >6 >6 >6 >6 >6
CIG -- --
  [35]  
--
  [35]  
--
  [35]  
-- 40 40 40 40 40 40 40 15 15
Cover FEW SCT
  [BKN]  
SCT
  [BKN]  
SCT
  [BKN]  
SCT BKN BKN BKN BKN BKN BKN BKN BKN BKN
FltCat VFR VFR
  [VFR]  
VFR
  [VFR]  
VFR
  [VFR]  
VFR VFR VFR VFR VFR VFR VFR VFR MVFR MVFR
WX -- --
  [--]  
--
  [--]  
--
  [--]  
-- -- -- -- -- -- -- -- -- --
WDir 10 10
[10]
10
[10]
10
[10]
10 110 110 110 110 110 110 110 350 350
WSpd 5 5
  [5]  
5
  [5]  
5
  [5]  
5 4 4 4 4 4 4 4 16 16
WGst -- --
  [--]  
--
  [--]  
--
  [--]  
-- -- -- -- -- -- -- -- -- --

Raw TAF
KDFW 070909Z 0709/0812 01005KT P6SM SCT035
  TEMPO 0710/0714 BKN035
  FM071500 11004KT P6SM BKN040
  FM072200 35016KT P6SM BKN015
  FM080200 36018G28KT P6SM BKN035


Raw METAR
KDFW 070953Z 01005KT 10SM FEW034 03/00 A3005 RMK AO2 SLP177 T00330000
KDFW 070853Z 35005KT 10SM FEW034 03/00 A3005 RMK AO2 SLP176 T00330000 55002
KDFW 070753Z 01006KT 10SM FEW034 04/00 A3005 RMK AO2 SLP175 T00440000

METAR Board
Radar Display
Forecast Discussion